Time;durP1;ratioP1;P1;durP2;ratioP2;P2;SDS_P1;SDS_P2;PMS_P1;PMS_P2;Temp;Humidity;BMP_temperature;BMP_pressure;BME280_temperature;BME280_humidity;BME280_pressure;Samples;Min_cycle;Max_cycle;Signal;HPM_P1;HPM_P2
2022/02/17 00:01:41;;;;;;;;;;;7.70;80.30;;;;;;5022976;28;89607;-47
2022/02/17 00:04:06;;;;;;;;;;;7.70;80.20;;;;;;5023240;28;87448;-47
2022/02/17 00:06:32;;;;;;;;;;;7.70;80.20;;;;;;5023266;28;88572;-47
2022/02/17 00:08:57;;;;;;;;;;;7.70;80.20;;;;;;5023234;28;89022;-45
2022/02/17 00:11:23;;;;;;;;;;;7.70;80.20;;;;;;5026189;28;87015;-48
2022/02/17 00:13:48;;;;;;;;;;;7.70;80.10;;;;;;5022724;28;88611;-44
2022/02/17 00:16:14;;;;;;;;;;;7.70;80.10;;;;;;5022346;28;88140;-44
2022/02/17 00:18:39;;;;;;;;;;;7.70;80.10;;;;;;5023351;28;87489;-43
2022/02/17 00:21:05;;;;;;;;;;;7.70;80.10;;;;;;5022514;28;89403;-48
2022/02/17 00:23:31;;;;;;;;;;;7.70;80.10;;;;;;5023495;28;87134;-46
2022/02/17 00:25:56;;;;;;;;;;;7.70;80.10;;;;;;5026354;28;88739;-48
2022/02/17 00:28:22;;;;;;;;;;;7.70;80.10;;;;;;5025918;28;89604;-46
2022/02/17 00:30:47;;;;;;;;;;;7.70;80.10;;;;;;5029302;28;87224;-48
2022/02/17 00:33:13;;;;;;;;;;;7.70;80.10;;;;;;5026650;28;87856;-46
2022/02/17 00:35:38;;;;;;;;;;;7.70;80.10;;;;;;5024707;28;86893;-45
2022/02/17 00:38:04;;;;;;;;;;;7.70;80.10;;;;;;5026248;28;89372;-47
2022/02/17 00:40:29;;;;;;;;;;;7.70;80.10;;;;;;5025348;28;90410;-48
2022/02/17 00:42:55;;;;;;;;;;;7.70;80.10;;;;;;5025626;28;87091;-48
2022/02/17 00:45:21;;;;;;;;;;;7.70;80.10;;;;;;5026474;28;86929;-46
2022/02/17 00:47:46;;;;;;;;;;;7.60;80.00;;;;;;5025861;28;89444;-49
2022/02/17 00:50:12;;;;;;;;;;;7.60;80.00;;;;;;5025703;28;87066;-48
2022/02/17 00:52:38;;;;;;;;;;;7.70;80.10;;;;;;5028776;28;87890;-45
2022/02/17 00:55:04;;;;;;;;;;;7.60;80.00;;;;;;5025916;28;86924;-47
2022/02/17 00:57:29;;;;;;;;;;;7.60;80.00;;;;;;5026332;28;89841;-45
2022/02/17 00:59:55;;;;;;;;;;;7.60;80.00;;;;;;5025457;28;89311;-46
2022/02/17 01:02:20;;;;;;;;;;;7.60;80.00;;;;;;5025905;28;87289;-47
2022/02/17 01:04:46;;;;;;;;;;;7.60;80.00;;;;;;5025145;28;89005;-48
2022/02/17 01:07:11;;;;;;;;;;;7.60;80.00;;;;;;5025585;28;87163;-44
2022/02/17 01:09:37;;;;;;;;;;;7.60;80.00;;;;;;5025715;28;87180;-50
2022/02/17 01:12:03;;;;;;;;;;;7.60;80.00;;;;;;5025871;28;88942;-45
2022/02/17 01:14:29;;;;;;;;;;;7.60;80.00;;;;;;5028117;28;89398;-46
2022/02/17 01:16:54;;;;;;;;;;;7.60;80.00;;;;;;5025702;28;88753;-47
2022/02/17 01:19:20;;;;;;;;;;;7.60;80.00;;;;;;5025196;28;89532;-48
2022/02/17 01:21:45;;;;;;;;;;;7.50;79.90;;;;;;5026013;28;86305;-47
2022/02/17 01:24:11;;;;;;;;;;;7.60;80.00;;;;;;5025686;28;88101;-48
2022/02/17 01:26:36;;;;;;;;;;;7.50;79.90;;;;;;5025206;28;89881;-46
2022/02/17 01:29:02;;;;;;;;;;;7.50;79.90;;;;;;5024790;28;88131;-45
2022/02/17 01:31:28;;;;;;;;;;;7.60;80.00;;;;;;5025462;28;89824;-47
2022/02/17 01:33:54;;;;;;;;;;;7.50;79.90;;;;;;5025016;28;89262;-48
2022/02/17 01:36:20;;;;;;;;;;;7.50;79.90;;;;;;5027608;28;86923;-48
2022/02/17 01:38:45;;;;;;;;;;;7.50;79.90;;;;;;5023667;28;91425;-47
2022/02/17 01:41:12;;;;;;;;;;;7.50;80.00;;;;;;5025476;28;87166;-45
2022/02/17 01:43:37;;;;;;;;;;;7.50;80.00;;;;;;5024903;28;88832;-48
2022/02/17 01:46:03;;;;;;;;;;;7.50;79.90;;;;;;5025268;28;89037;-46
2022/02/17 01:48:29;;;;;;;;;;;7.50;79.90;;;;;;5025445;28;87094;-45
2022/02/17 01:50:55;;;;;;;;;;;7.50;79.90;;;;;;5025219;28;88969;-48
2022/02/17 01:53:21;;;;;;;;;;;7.50;79.90;;;;;;5024171;28;89462;-45
2022/02/17 01:55:48;;;;;;;;;;;7.50;80.00;;;;;;5025084;28;86902;-48
2022/02/17 01:58:14;;;;;;;;;;;7.50;80.00;;;;;;5027495;28;88830;-44
2022/02/17 02:00:41;;;;;;;;;;;7.40;79.90;;;;;;5024852;28;87173;-48
2022/02/17 02:03:10;;;;;;;;;;;7.40;79.80;;;;;;5024951;28;89128;-48
2022/02/17 02:05:35;;;;;;;;;;;7.40;79.90;;;;;;5024278;28;89498;-46
2022/02/17 02:08:02;;;;;;;;;;;7.40;79.90;;;;;;5024935;28;87071;-49
2022/02/17 02:10:28;;;;;;;;;;;7.40;79.90;;;;;;5025662;28;87405;-47
2022/02/17 02:12:53;;;;;;;;;;;7.40;79.80;;;;;;5024384;28;88610;-47
2022/02/17 02:15:19;;;;;;;;;;;7.40;79.90;;;;;;5024737;28;87147;-44
2022/02/17 02:17:45;;;;;;;;;;;7.40;79.80;;;;;;5024252;28;88029;-45
2022/02/17 02:20:16;;;;;;;;;;;7.40;79.90;;;;;;5027083;28;88950;-49
2022/02/17 02:22:42;;;;;;;;;;;7.40;79.90;;;;;;5024745;28;88936;-45
2022/02/17 02:25:08;;;;;;;;;;;7.40;79.80;;;;;;5024272;28;88474;-47
2022/02/17 02:27:34;;;;;;;;;;;7.40;79.90;;;;;;5024679;28;87085;-48
2022/02/17 02:30:00;;;;;;;;;;;7.40;79.80;;;;;;5024627;28;88697;-47
2022/02/17 02:32:26;;;;;;;;;;;7.40;79.90;;;;;;5024143;28;89101;-48
2022/02/17 02:34:51;;;;;;;;;;;7.40;79.80;;;;;;5024921;28;86383;-46
2022/02/17 02:37:17;;;;;;;;;;;7.40;79.80;;;;;;5024421;28;88527;-47
2022/02/17 02:39:42;;;;;;;;;;;7.40;79.90;;;;;;5027082;28;89199;-48
2022/02/17 02:42:08;;;;;;;;;;;7.40;79.80;;;;;;5023723;28;88389;-51
2022/02/17 02:44:33;;;;;;;;;;;7.40;79.80;;;;;;5023618;28;89681;-48
2022/02/17 02:46:59;;;;;;;;;;;7.40;79.80;;;;;;5023470;28;87125;-47
2022/02/17 02:49:25;;;;;;;;;;;7.40;79.80;;;;;;5023739;28;89245;-48
2022/02/17 02:51:50;;;;;;;;;;;7.40;79.80;;;;;;5023737;28;89767;-47
2022/02/17 02:54:16;;;;;;;;;;;7.40;79.80;;;;;;5024479;28;87016;-46
2022/02/17 02:56:42;;;;;;;;;;;7.30;79.70;;;;;;5023979;28;89026;-46
2022/02/17 02:59:08;;;;;;;;;;;7.30;79.80;;;;;;5024201;28;87656;-47
2022/02/17 03:01:33;;;;;;;;;;;7.30;79.80;;;;;;5026889;28;86989;-47
2022/02/17 03:03:59;;;;;;;;;;;7.30;79.90;;;;;;5023407;28;89551;-49
2022/02/17 03:06:25;;;;;;;;;;;7.30;79.80;;;;;;5023061;28;88091;-50
2022/02/17 03:08:51;;;;;;;;;;;7.30;79.80;;;;;;5023837;28;90005;-45
2022/02/17 03:11:16;;;;;;;;;;;7.30;79.80;;;;;;5023696;28;88143;-47
2022/02/17 03:13:42;;;;;;;;;;;7.30;79.80;;;;;;5023905;28;87143;-48
2022/02/17 03:16:07;;;;;;;;;;;7.30;80.30;;;;;;5023869;28;87725;-46
2022/02/17 03:18:33;;;;;;;;;;;7.30;79.80;;;;;;5023245;28;89688;-49
2022/02/17 03:20:59;;;;;;;;;;;7.30;79.80;;;;;;5023843;28;86856;-48
2022/02/17 03:23:24;;;;;;;;;;;7.30;80.40;;;;;;5026801;28;88877;-48
2022/02/17 03:25:51;;;;;;;;;;;7.20;79.70;;;;;;5023601;28;87106;-45
2022/02/17 03:28:16;;;;;;;;;;;7.30;79.80;;;;;;5023644;28;88929;-49
2022/02/17 03:30:42;;;;;;;;;;;7.20;79.80;;;;;;5022529;28;90574;-48
2022/02/17 03:33:09;;;;;;;;;;;7.20;79.80;;;;;;5023663;28;87179;-47
2022/02/17 03:35:34;;;;;;;;;;;7.30;79.80;;;;;;5023545;28;89078;-47
2022/02/17 03:38:00;;;;;;;;;;;7.20;79.80;;;;;;5023276;28;89568;-44
2022/02/17 03:40:25;;;;;;;;;;;7.20;79.80;;;;;;5023806;28;87129;-48
2022/02/17 03:42:51;;;;;;;;;;;7.20;79.80;;;;;;5023287;28;89205;-47
2022/02/17 03:45:16;;;;;;;;;;;7.20;80.40;;;;;;5025935;28;89696;-47
2022/02/17 03:47:42;;;;;;;;;;;7.20;79.80;;;;;;5023889;28;87819;-45
2022/02/17 03:50:09;;;;;;;;;;;7.20;79.80;;;;;;5022599;28;89615;-48
2022/02/17 03:52:35;;;;;;;;;;;7.20;79.80;;;;;;5023369;28;87073;-47
2022/02/17 03:55:01;;;;;;;;;;;7.20;79.80;;;;;;5022813;28;88840;-46
2022/02/17 03:57:26;;;;;;;;;;;7.20;79.90;;;;;;5022976;28;88714;-47
2022/02/17 03:59:52;;;;;;;;;;;7.20;79.90;;;;;;5028183;28;87149;-45
2022/02/17 04:02:18;;;;;;;;;;;7.20;79.90;;;;;;5029825;28;89015;-46
2022/02/17 04:04:44;;;;;;;;;;;7.20;79.90;;;;;;5029376;28;89292;-50
2022/02/17 04:07:10;;;;;;;;;;;7.20;79.90;;;;;;5032921;28;86983;-46
2022/02/17 04:09:35;;;;;;;;;;;7.20;79.90;;;;;;5029750;28;89659;-50
2022/02/17 04:12:01;;;;;;;;;;;7.20;79.80;;;;;;5030316;28;86317;-49
2022/02/17 04:14:27;;;;;;;;;;;7.10;79.80;;;;;;5030045;28;86859;-47
2022/02/17 04:16:52;;;;;;;;;;;7.20;79.80;;;;;;5029296;28;89922;-45
2022/02/17 04:19:18;;;;;;;;;;;7.20;79.90;;;;;;5028796;28;88150;-48
2022/02/17 04:21:44;;;;;;;;;;;7.10;80.40;;;;;;5029568;28;89874;-47
2022/02/17 04:24:09;;;;;;;;;;;7.10;79.80;;;;;;5029416;28;89456;-47
2022/02/17 04:26:35;;;;;;;;;;;7.10;79.80;;;;;;5029619;28;87118;-44
2022/02/17 04:29:01;;;;;;;;;;;7.10;79.80;;;;;;5032230;28;88785;-48
2022/02/17 04:31:27;;;;;;;;;;;7.10;79.80;;;;;;5029406;28;87171;-45
2022/02/17 04:33:53;;;;;;;;;;;7.10;79.80;;;;;;5029275;28;88841;-47
2022/02/17 04:36:18;;;;;;;;;;;7.10;79.80;;;;;;5029691;28;88730;-44
2022/02/17 04:38:44;;;;;;;;;;;7.10;79.80;;;;;;5029459;28;87071;-47
2022/02/17 04:43:54;;;;;;;;;;;7.10;79.80;;;;;;5027232;28;88210;-50
2022/02/17 04:46:19;;;;;;;;;;;7.00;79.80;;;;;;5029055;28;87033;-47
2022/02/17 04:48:45;;;;;;;;;;;7.10;79.90;;;;;;5032051;28;88607;-49
2022/02/17 04:51:10;;;;;;;;;;;7.00;79.90;;;;;;5029277;28;87027;-48
2022/02/17 04:53:36;;;;;;;;;;;7.00;79.80;;;;;;5029464;28;88887;-47
2022/02/17 04:56:02;;;;;;;;;;;7.00;79.80;;;;;;5029047;28;89618;-50
2022/02/17 04:58:28;;;;;;;;;;;7.00;79.90;;;;;;5029046;28;87102;-49
2022/02/17 05:00:53;;;;;;;;;;;7.00;79.90;;;;;;5029659;28;88936;-48
2022/02/17 05:03:23;;;;;;;;;;;7.00;79.80;;;;;;5028491;28;89860;-45
2022/02/17 05:05:56;;;;;;;;;;;7.00;79.80;;;;;;5029153;28;86960;-47
2022/02/17 05:08:21;;;;;;;;;;;7.00;79.80;;;;;;5028423;28;89097;-46
2022/02/17 05:10:47;;;;;;;;;;;7.00;79.80;;;;;;5028975;28;89360;-45
2022/02/17 05:13:13;;;;;;;;;;;7.00;79.80;;;;;;5025914;28;89309;-47
2022/02/17 05:15:38;;;;;;;;;;;7.00;79.90;;;;;;5025206;28;89372;-45
2022/02/17 05:18:04;;;;;;;;;;;6.90;79.90;;;;;;5025741;28;86989;-48
2022/02/17 05:20:30;;;;;;;;;;;6.90;79.80;;;;;;5025554;28;88979;-46
2022/02/17 05:22:55;;;;;;;;;;;7.00;80.40;;;;;;5025251;28;89547;-44
2022/02/17 05:25:21;;;;;;;;;;;7.00;79.80;;;;;;5026009;28;86395;-51
2022/02/17 05:27:46;;;;;;;;;;;7.00;79.80;;;;;;5025563;28;88130;-47
2022/02/17 05:30:12;;;;;;;;;;;6.90;79.80;;;;;;5024995;28;88403;-48
2022/02/17 05:32:39;;;;;;;;;;;6.90;79.80;;;;;;5027607;28;88208;-48
2022/02/17 05:35:05;;;;;;;;;;;6.90;79.80;;;;;;5025036;28;89441;-45
2022/02/17 05:37:31;;;;;;;;;;;6.90;79.70;;;;;;5025343;28;87092;-47
2022/02/17 05:39:56;;;;;;;;;;;6.90;79.80;;;;;;5025503;28;89110;-47
2022/02/17 05:42:22;;;;;;;;;;;6.90;79.80;;;;;;5024672;28;89579;-48
2022/02/17 05:44:47;;;;;;;;;;;6.90;79.80;;;;;;5025027;28;87072;-47
2022/02/17 05:47:13;;;;;;;;;;;6.90;79.80;;;;;;5024983;28;88878;-49
2022/02/17 05:49:38;;;;;;;;;;;6.90;79.80;;;;;;5025460;28;89177;-44
2022/02/17 05:52:04;;;;;;;;;;;6.90;79.80;;;;;;5025186;28;87147;-45
2022/02/17 05:54:30;;;;;;;;;;;6.90;79.80;;;;;;5027749;28;89293;-45
2022/02/17 05:56:55;;;;;;;;;;;6.90;79.80;;;;;;5024439;28;88062;-48
2022/02/17 05:59:21;;;;;;;;;;;6.90;79.80;;;;;;5025143;28;89870;-44
2022/02/17 06:01:46;;;;;;;;;;;6.90;79.70;;;;;;5024394;28;89419;-44
2022/02/17 06:04:12;;;;;;;;;;;6.90;79.80;;;;;;5025016;28;86881;-48
2022/02/17 06:06:38;;;;;;;;;;;6.90;79.70;;;;;;5024747;28;88805;-46
2022/02/17 06:09:04;;;;;;;;;;;6.90;79.80;;;;;;5024448;28;89351;-48
2022/02/17 06:11:29;;;;;;;;;;;6.80;79.80;;;;;;5024842;28;86862;-45
2022/02/17 06:13:55;;;;;;;;;;;6.80;79.80;;;;;;5025185;28;88718;-45
2022/02/17 06:16:20;;;;;;;;;;;6.90;79.80;;;;;;5027197;28;89365;-46
2022/02/17 06:18:47;;;;;;;;;;;6.90;79.80;;;;;;5025057;28;89114;-47
2022/02/17 06:21:12;;;;;;;;;;;6.80;79.80;;;;;;5023557;28;90521;-47
2022/02/17 06:23:38;;;;;;;;;;;6.80;79.80;;;;;;5024873;28;87169;-45
2022/02/17 06:26:03;;;;;;;;;;;6.80;79.70;;;;;;5024575;28;88840;-46
2022/02/17 06:28:29;;;;;;;;;;;6.80;79.80;;;;;;5024172;28;89441;-47
2022/02/17 06:30:54;;;;;;;;;;;6.80;79.80;;;;;;5024440;28;87255;-47
2022/02/17 06:33:20;;;;;;;;;;;6.80;79.80;;;;;;5024399;28;88825;-46
2022/02/17 06:35:45;;;;;;;;;;;6.80;79.80;;;;;;5024175;28;89562;-47
2022/02/17 06:38:12;;;;;;;;;;;6.80;79.80;;;;;;5027824;28;86082;-47
2022/02/17 06:40:37;;;;;;;;;;;6.80;79.80;;;;;;5024228;28;89847;-45
2022/02/17 06:43:04;;;;;;;;;;;6.80;79.80;;;;;;5023913;28;87117;-48
2022/02/17 06:45:29;;;;;;;;;;;6.80;79.80;;;;;;5023673;28;88529;-44
2022/02/17 06:47:55;;;;;;;;;;;6.80;79.80;;;;;;5023488;28;89728;-47
2022/02/17 06:50:21;;;;;;;;;;;6.80;79.80;;;;;;5024389;28;87118;-44
2022/02/17 06:52:46;;;;;;;;;;;6.80;79.90;;;;;;5024159;28;88195;-47
2022/02/17 06:55:12;;;;;;;;;;;6.80;79.80;;;;;;5023797;28;89774;-45
2022/02/17 06:57:38;;;;;;;;;;;6.80;79.80;;;;;;5027043;28;87142;-44
2022/02/17 07:00:05;;;;;;;;;;;6.70;79.80;;;;;;5023637;28;89929;-45
2022/02/17 07:02:33;;;;;;;;;;;6.70;79.80;;;;;;5024361;28;87529;-44
2022/02/17 07:05:00;;;;;;;;;;;6.80;79.80;;;;;;5024127;28;88244;-44
2022/02/17 07:07:25;;;;;;;;;;;6.80;79.80;;;;;;5023646;28;89571;-47
2022/02/17 07:09:51;;;;;;;;;;;6.80;79.80;;;;;;5023630;28;88002;-47
2022/02/17 07:12:16;;;;;;;;;;;6.80;80.40;;;;;;5023817;28;89724;-46
2022/02/17 07:14:42;;;;;;;;;;;6.70;79.70;;;;;;5023524;28;89241;-47
2022/02/17 07:17:08;;;;;;;;;;;6.80;79.80;;;;;;5023659;28;87001;-46
2022/02/17 07:19:33;;;;;;;;;;;6.70;79.70;;;;;;5026309;28;88887;-47
2022/02/17 07:21:59;;;;;;;;;;;6.80;79.80;;;;;;5023705;28;87106;-49
2022/02/17 07:24:25;;;;;;;;;;;6.80;79.80;;;;;;5023653;28;88902;-45
2022/02/17 07:26:50;;;;;;;;;;;6.70;79.70;;;;;;5023619;28;88419;-43
2022/02/17 07:29:16;;;;;;;;;;;6.80;79.80;;;;;;5023788;28;87190;-43
2022/02/17 07:31:42;;;;;;;;;;;6.70;79.70;;;;;;5023373;28;88957;-46
2022/02/17 07:34:08;;;;;;;;;;;6.70;79.70;;;;;;5022043;28;90455;-45
2022/02/17 07:36:34;;;;;;;;;;;6.70;79.70;;;;;;5023685;28;87090;-44
2022/02/17 07:38:59;;;;;;;;;;;6.70;79.70;;;;;;5023476;28;88778;-48
2022/02/17 07:41:25;;;;;;;;;;;6.80;79.80;;;;;;5026074;28;89293;-45
2022/02/17 07:43:51;;;;;;;;;;;6.80;79.70;;;;;;5022724;28;89199;-46
2022/02/17 07:46:16;;;;;;;;;;;6.80;79.80;;;;;;5022874;28;88583;-45
2022/02/17 07:48:42;;;;;;;;;;;6.80;79.80;;;;;;5023623;28;87108;-46
2022/02/17 08:03:10;;;;;;;;;;;6.80;79.20;;;;;;5066282;27;79983;-44
2022/02/17 08:05:38;;;;;;;;;;;6.80;79.70;;;;;;5065152;27;80005;-43
2022/02/17 08:08:07;;;;;;;;;;;6.80;79.70;;;;;;5064678;27;81361;-44
2022/02/17 08:10:35;;;;;;;;;;;6.80;79.60;;;;;;5064586;27;83303;-44
2022/02/17 08:13:00;;;;;;;;;;;6.80;79.60;;;;;;5065152;27;80648;-44
2022/02/17 08:15:26;;;;;;;;;;;6.80;79.60;;;;;;5064969;27;82335;-44
2022/02/17 08:17:51;;;;;;;;;;;6.80;79.60;;;;;;5064740;27;82825;-44
2022/02/17 08:20:17;;;;;;;;;;;6.80;79.60;;;;;;5064985;27;80279;-44
2022/02/17 08:22:50;;;;;;;;;;;6.80;79.50;;;;;;5067262;27;82396;-44
2022/02/17 08:25:16;;;;;;;;;;;6.80;79.50;;;;;;5064877;27;80328;-44
2022/02/17 08:27:41;;;;;;;;;;;6.80;79.50;;;;;;5064905;27;80266;-44
2022/02/17 08:30:07;;;;;;;;;;;6.80;79.50;;;;;;5064490;27;83085;-44
2022/02/17 08:32:36;;;;;;;;;;;6.80;79.50;;;;;;5064548;27;80362;-44
2022/02/17 08:35:02;;;;;;;;;;;6.80;79.50;;;;;;5064594;27;81345;-44
2022/02/17 08:37:28;;;;;;;;;;;6.80;79.50;;;;;;5064028;27;82184;-44
2022/02/17 08:39:53;;;;;;;;;;;6.80;79.60;;;;;;5064542;27;80348;-44
2022/02/17 08:42:19;;;;;;;;;;;6.80;79.60;;;;;;5064284;27;82668;-44
2022/02/17 08:44:44;;;;;;;;;;;6.80;79.70;;;;;;5066823;27;82582;-44
2022/02/17 08:47:10;;;;;;;;;;;6.80;79.70;;;;;;5064158;27;82407;-44
2022/02/17 08:49:36;;;;;;;;;;;6.90;79.80;;;;;;5064269;27;81563;-44
2022/02/17 08:52:01;;;;;;;;;;;6.80;79.80;;;;;;5063786;27;80372;-44
2022/02/17 08:54:27;;;;;;;;;;;6.80;79.80;;;;;;5064308;27;81971;-45
2022/02/17 08:56:52;;;;;;;;;;;6.90;79.90;;;;;;5064191;27;81793;-44
2022/02/17 08:59:18;;;;;;;;;;;6.90;79.90;;;;;;5064002;27;80163;-44
2022/02/17 09:01:43;;;;;;;;;;;6.80;79.90;;;;;;5063495;27;81275;-44
2022/02/17 09:04:09;;;;;;;;;;;6.90;79.90;;;;;;5050171;27;82701;-43
2022/02/17 09:06:34;;;;;;;;;;;6.90;79.90;;;;;;5052965;27;80378;-45
2022/02/17 09:09:00;;;;;;;;;;;6.90;80.00;;;;;;5050390;27;81994;-44
2022/02/17 09:11:26;;;;;;;;;;;6.90;80.00;;;;;;5050279;27;80260;-44
2022/02/17 09:13:51;;;;;;;;;;;6.90;80.00;;;;;;5050274;28;82250;-44
2022/02/17 09:16:17;;;;;;;;;;;6.90;80.00;;;;;;5050201;27;82828;-44
2022/02/17 09:18:42;;;;;;;;;;;6.90;80.00;;;;;;5050047;27;80312;-44
2022/02/17 09:21:08;;;;;;;;;;;6.90;80.10;;;;;;5050271;27;82108;-44
2022/02/17 09:23:34;;;;;;;;;;;6.90;80.00;;;;;;5050069;27;82942;-44
2022/02/17 09:26:00;;;;;;;;;;;6.90;80.10;;;;;;5050276;27;80397;-44
2022/02/17 09:28:26;;;;;;;;;;;6.90;80.20;;;;;;5052931;27;81124;-44
2022/02/17 09:30:51;;;;;;;;;;;6.90;80.20;;;;;;5049797;28;80024;-44
2022/02/17 09:33:17;;;;;;;;;;;6.90;80.20;;;;;;5049965;28;82663;-44
2022/02/17 09:35:42;;;;;;;;;;;6.90;80.20;;;;;;5049870;27;83422;-44
2022/02/17 09:38:08;;;;;;;;;;;6.90;80.10;;;;;;5049729;28;80336;-44
2022/02/17 09:40:33;;;;;;;;;;;6.90;80.10;;;;;;5050085;27;82696;-44
2022/02/17 09:42:59;;;;;;;;;;;6.90;80.10;;;;;;5049750;27;83356;-44
2022/02/17 09:45:25;;;;;;;;;;;7.00;80.10;;;;;;5049847;27;80397;-44
2022/02/17 09:47:51;;;;;;;;;;;7.00;80.20;;;;;;5049773;27;82198;-44
2022/02/17 09:50:17;;;;;;;;;;;7.00;80.10;;;;;;5052177;27;82592;-44
2022/02/17 09:52:43;;;;;;;;;;;7.00;80.10;;;;;;5049471;27;81789;-44
2022/02/17 09:55:12;;;;;;;;;;;7.00;80.10;;;;;;5049774;27;81548;-44
2022/02/17 09:57:38;;;;;;;;;;;7.00;80.00;;;;;;5049701;27;80253;-44
2022/02/17 10:00:09;;;;;;;;;;;7.10;79.90;;;;;;5049635;27;81336;-44
2022/02/17 10:02:35;;;;;;;;;;;7.00;79.90;;;;;;5048775;27;82054;-44
2022/02/17 10:05:03;;;;;;;;;;;7.00;80.00;;;;;;5049363;27;80381;-44
2022/02/17 10:07:30;;;;;;;;;;;7.00;80.20;;;;;;5049485;27;80978;-46
2022/02/17 10:10:00;;;;;;;;;;;7.00;80.10;;;;;;5049395;27;82292;-43
2022/02/17 10:12:45;;;;;;;;;;;7.10;80.10;;;;;;5051946;28;80132;-44
2022/02/17 10:15:11;;;;;;;;;;;7.10;80.30;;;;;;5048050;27;82210;-44
2022/02/17 10:17:37;;;;;;;;;;;7.10;80.30;;;;;;5048818;27;80205;-44
2022/02/17 10:20:03;;;;;;;;;;;7.10;80.50;;;;;;5049331;27;81997;-44
2022/02/17 10:22:31;;;;;;;;;;;7.10;80.30;;;;;;5048965;27;82900;-44
2022/02/17 10:24:57;;;;;;;;;;;7.20;80.50;;;;;;5049198;27;80358;-44
2022/02/17 10:27:28;;;;;;;;;;;7.20;80.40;;;;;;5049170;27;81082;-44
2022/02/17 10:30:10;;;;;;;;;;;7.20;80.60;;;;;;5049022;28;82733;-44
2022/02/17 10:32:37;;;;;;;;;;;7.10;80.70;;;;;;5051751;27;80269;-44
2022/02/17 10:35:20;;;;;;;;;;;7.20;80.90;;;;;;5048938;27;82766;-44
2022/02/17 10:37:52;;;;;;;;;;;7.20;81.10;;;;;;5048985;27;80225;-44
2022/02/17 10:40:24;;;;;;;;;;;7.10;81.20;;;;;;5048968;27;82346;-44
2022/02/17 10:42:57;;;;;;;;;;;7.20;81.30;;;;;;5048443;27;81904;-44
2022/02/17 10:45:23;;;;;;;;;;;7.20;81.40;;;;;;5048986;27;80406;-44
2022/02/17 10:47:48;;;;;;;;;;;7.20;81.50;;;;;;5048789;27;82408;-44
2022/02/17 10:50:18;;;;;;;;;;;7.20;81.50;;;;;;5048533;28;83435;-44
2022/02/17 10:52:44;;;;;;;;;;;7.20;81.40;;;;;;5048674;27;80373;-45
2022/02/17 10:55:12;;;;;;;;;;;7.20;81.40;;;;;;5051240;27;82352;-43
2022/02/17 10:57:38;;;;;;;;;;;7.30;81.50;;;;;;5048604;27;80393;-44
2022/02/17 11:00:18;;;;;;;;;;;7.30;81.60;;;;;;5048892;27;82292;-45
2022/02/17 11:02:44;;;;;;;;;;;7.30;81.60;;;;;;5048172;28;82596;-45
2022/02/17 11:05:11;;;;;;;;;;;7.30;81.70;;;;;;5048543;27;80376;-44
2022/02/17 11:07:37;;;;;;;;;;;7.30;81.60;;;;;;5048603;27;82152;-45
2022/02/17 11:10:03;;;;;;;;;;;7.30;81.70;;;;;;5048250;28;82738;-44
2022/02/17 11:12:30;;;;;;;;;;;7.30;81.80;;;;;;5048317;27;80360;-44
2022/02/17 11:14:57;;;;;;;;;;;7.40;81.70;;;;;;5048280;27;82173;-44
2022/02/17 11:17:23;;;;;;;;;;;7.40;81.80;;;;;;5050946;27;83031;-44
2022/02/17 11:19:49;;;;;;;;;;;7.40;81.60;;;;;;5048407;27;81873;-44
2022/02/17 11:22:16;;;;;;;;;;;7.40;81.70;;;;;;5048156;27;83012;-44
2022/02/17 11:24:46;;;;;;;;;;;7.50;81.80;;;;;;5048109;27;80323;-44
2022/02/17 11:27:11;;;;;;;;;;;7.50;82.00;;;;;;5047805;28;82092;-44
2022/02/17 11:29:38;;;;;;;;;;;7.50;81.90;;;;;;5048221;28;82081;-44
2022/02/17 11:32:04;;;;;;;;;;;7.50;81.90;;;;;;5048103;28;80189;-45
2022/02/17 11:34:37;;;;;;;;;;;7.50;81.90;;;;;;5048195;27;82113;-45
2022/02/17 11:37:38;;;;;;;;;;;7.50;81.90;;;;;;5047607;27;82464;-44
2022/02/17 11:40:05;;;;;;;;;;;7.50;82.00;;;;;;5007724;28;80341;-44
2022/02/17 11:42:31;;;;;;;;;;;7.60;81.90;;;;;;5039238;27;82521;-44
2022/02/17 11:45:12;;;;;;;;;;;7.60;82.00;;;;;;5047947;27;80419;-44
2022/02/17 11:47:59;;;;;;;;;;;7.60;82.00;;;;;;5047897;27;81248;-44
2022/02/17 11:50:30;;;;;;;;;;;7.60;82.10;;;;;;5047876;28;83067;-44
2022/02/17 11:53:14;;;;;;;;;;;7.60;82.00;;;;;;5047747;27;80392;-44
2022/02/17 11:55:40;;;;;;;;;;;7.60;82.10;;;;;;5047791;27;82134;-45
2022/02/17 11:58:25;;;;;;;;;;;7.60;82.20;;;;;;5047517;27;81895;-44
2022/02/17 12:00:50;;;;;;;;;;;7.70;82.10;;;;;;5046774;28;80426;-44
2022/02/17 12:03:36;;;;;;;;;;;7.70;82.20;;;;;;5050517;28;81475;-45
2022/02/17 12:06:20;;;;;;;;;;;7.70;82.10;;;;;;5047211;28;80285;-44
2022/02/17 12:08:52;;;;;;;;;;;7.70;82.00;;;;;;5047905;27;82229;-44
2022/02/17 12:11:28;;;;;;;;;;;7.70;82.00;;;;;;5046181;27;84638;-45
2022/02/17 12:13:54;;;;;;;;;;;7.80;81.90;;;;;;5047187;27;81400;-46
2022/02/17 12:16:36;;;;;;;;;;;7.80;82.00;;;;;;5046570;27;82137;-45
2022/02/17 12:19:14;;;;;;;;;;;7.80;82.20;;;;;;5046145;27;84256;-44
2022/02/17 12:21:41;;;;;;;;;;;7.80;82.10;;;;;;5045810;27;83716;-46
2022/02/17 12:24:07;;;;;;;;;;;7.80;82.10;;;;;;5048822;27;84714;-46
2022/02/17 12:26:40;;;;;;;;;;;7.90;82.20;;;;;;5046458;27;82075;-46
2022/02/17 12:29:36;;;;;;;;;;;7.90;82.20;;;;;;5046260;27;83732;-44
2022/02/17 12:32:05;;;;;;;;;;;7.90;82.00;;;;;;5042236;27;84340;-43
2022/02/17 12:34:31;;;;;;;;;;;7.90;82.10;;;;;;5046109;27;82108;-46
2022/02/17 12:36:57;;;;;;;;;;;7.90;82.20;;;;;;5046280;28;83953;-44
2022/02/17 12:39:25;;;;;;;;;;;8.00;82.20;;;;;;5049776;27;82749;-43
2022/02/17 12:41:58;;;;;;;;;;;8.00;82.00;;;;;;5049561;27;82066;-46
2022/02/17 12:44:29;;;;;;;;;;;8.00;82.00;;;;;;5049734;27;82811;-46
2022/02/17 12:46:55;;;;;;;;;;;8.00;82.00;;;;;;5051888;27;85187;-45
2022/02/17 12:49:21;;;;;;;;;;;8.00;81.90;;;;;;5049717;27;83463;-44
2022/02/17 12:51:46;;;;;;;;;;;8.00;82.10;;;;;;5049251;27;84569;-46
2022/02/17 12:54:12;;;;;;;;;;;8.10;82.10;;;;;;5049533;27;81961;-47
2022/02/17 12:56:40;;;;;;;;;;;8.10;82.00;;;;;;5049426;27;84136;-44
2022/02/17 12:59:09;;;;;;;;;;;8.10;82.10;;;;;;5049279;27;84596;-44
2022/02/17 13:01:36;;;;;;;;;;;8.10;82.10;;;;;;5048752;28;82130;-43
2022/02/17 13:04:01;;;;;;;;;;;8.10;82.10;;;;;;5049769;27;83840;-46
2022/02/17 13:06:27;;;;;;;;;;;8.10;82.20;;;;;;5048975;27;84679;-46
2022/02/17 13:08:56;;;;;;;;;;;8.10;82.20;;;;;;5052105;27;82433;-46
2022/02/17 13:11:24;;;;;;;;;;;8.20;82.20;;;;;;5048208;27;85040;-46
2022/02/17 13:14:00;;;;;;;;;;;8.20;82.20;;;;;;5049389;27;82125;-46
2022/02/17 13:16:26;;;;;;;;;;;8.20;82.20;;;;;;5049293;27;83897;-44
2022/02/17 13:18:51;;;;;;;;;;;8.20;82.30;;;;;;5049014;27;84518;-44
2022/02/17 13:21:18;;;;;;;;;;;8.20;82.40;;;;;;5049131;28;82076;-43
2022/02/17 13:23:45;;;;;;;;;;;8.20;82.40;;;;;;5048942;28;83990;-45
2022/02/17 13:26:26;;;;;;;;;;;8.30;82.30;;;;;;5048898;27;84028;-44
2022/02/17 13:28:53;;;;;;;;;;;8.20;82.30;;;;;;5049297;27;81364;-44
2022/02/17 13:31:22;;;;;;;;;;;8.30;82.40;;;;;;5051465;27;83059;-44
2022/02/17 13:33:47;;;;;;;;;;;8.30;82.50;;;;;;5048819;27;82043;-44
2022/02/17 13:36:25;;;;;;;;;;;8.30;82.40;;;;;;5048270;27;84352;-46
2022/02/17 13:39:04;;;;;;;;;;;8.30;82.40;;;;;;5048691;28;84306;-46
2022/02/17 13:41:30;;;;;;;;;;;8.30;82.40;;;;;;5048695;28;82079;-43
2022/02/17 13:43:58;;;;;;;;;;;8.30;82.40;;;;;;5048912;27;82460;-43
2022/02/17 13:46:24;;;;;;;;;;;8.30;82.40;;;;;;5048419;27;84325;-43
2022/02/17 13:48:49;;;;;;;;;;;8.40;82.40;;;;;;5048319;27;81956;-45
2022/02/17 13:51:15;;;;;;;;;;;8.40;82.40;;;;;;5048573;27;83838;-44
2022/02/17 13:53:42;;;;;;;;;;;8.30;82.20;;;;;;5051937;28;82938;-44
2022/02/17 13:56:08;;;;;;;;;;;8.30;82.30;;;;;;5048667;27;83267;-43
2022/02/17 13:58:35;;;;;;;;;;;8.40;82.30;;;;;;5048272;27;84571;-44
2022/02/17 14:01:02;;;;;;;;;;;8.40;82.20;;;;;;5047113;27;83003;-44
2022/02/17 14:03:39;;;;;;;;;;;8.40;82.40;;;;;;5048211;27;84370;-43
2022/02/17 14:06:17;;;;;;;;;;;8.40;82.10;;;;;;5048219;27;84309;-43
2022/02/17 14:08:43;;;;;;;;;;;8.40;82.20;;;;;;5048161;27;82079;-44
2022/02/17 14:11:09;;;;;;;;;;;8.40;81.90;;;;;;5048143;27;82902;-44
2022/02/17 14:13:34;;;;;;;;;;;8.40;82.00;;;;;;5048031;27;84615;-44
2022/02/17 14:16:00;;;;;;;;;;;8.40;81.90;;;;;;5050622;28;82041;-44
2022/02/17 14:18:25;;;;;;;;;;;8.50;82.00;;;;;;5048510;27;84344;-44
2022/02/17 14:20:51;;;;;;;;;;;8.50;81.90;;;;;;5048295;27;82115;-44
2022/02/17 14:23:17;;;;;;;;;;;8.50;81.90;;;;;;5048051;27;83986;-44
2022/02/17 14:25:42;;;;;;;;;;;8.50;81.80;;;;;;5047264;27;85455;-43
2022/02/17 14:28:08;;;;;;;;;;;8.50;81.90;;;;;;5048114;27;82092;-45
2022/02/17 14:30:34;;;;;;;;;;;8.50;81.80;;;;;;5048013;27;83826;-47
2022/02/17 14:33:01;;;;;;;;;;;8.50;81.90;;;;;;5047741;27;84461;-44
2022/02/17 14:35:26;;;;;;;;;;;8.50;81.90;;;;;;5050668;28;82560;-44
2022/02/17 14:37:52;;;;;;;;;;;8.50;81.80;;;;;;5047586;27;84521;-46
2022/02/17 14:40:19;;;;;;;;;;;8.50;81.90;;;;;;5047729;27;82044;-46
2022/02/17 14:42:47;;;;;;;;;;;8.50;82.00;;;;;;5048396;27;84404;-45
2022/02/17 14:45:13;;;;;;;;;;;8.50;81.90;;;;;;5047423;28;84598;-45